Aviation Digital Data Service (ADDS)

Output produced by METARs form (1752 UTC 24 March 2017)
found at http://www.aviationweather.gov/adds/metars/
 
OEAB 241700Z 19012KT CAVOK 18/16 Q1022 NOSIG
TAF OEAB 241100Z 2412/2518 20010G20KT 9999 FEW020 
     TEMPO 2412/2416 7000 SCT020 FEW025CB 
     PROB30 
     TEMPO 2500/2505 3000 BR FEW015
       
OEAH 241700Z 10008KT CAVOK 23/15 Q1009 NOSIG
TAF OEAH 241100Z 2412/2518 16014KT 4000 DU FEW040 SCT100 
     TEMPO 2412/2414 2000 BLDU 
     BECMG 2418/2420 09012KT 
     TEMPO 2418/2509 5000 TSRA FEW035CB SCT040
       
OEBA 241700Z 19004KT CAVOK 21/15 Q1016 NOSIG
TAF OEBA 241100Z 2412/2518 23010G20KT 9999 FEW030 
     TEMPO 2412/2416 7000 FEW025CB SCT030 
     PROB30 
     TEMPO 2500/2505 3000 BR FEW015
       
OESK 241700Z 09009KT 9999 BKN040 15/08 Q1014 NOSIG
TAF OESK 241100Z 2412/2518 32012KT 9999 SCT030 BKN100 
     TEMPO 2412/2420 7000 TSRA FEW035CB 
     BECMG 2418/2420 VRB04KT
       
OERR 241700Z 33009KT 9999 FEW030CB BKN030 18/10 Q1013 NOSIG
TAF OERR 241100Z 2412/2518 32012KT 9999 SCT030 BKN100 
     TEMPO 2412/2420 7000 TSRA FEW035CB 
     BECMG 2418/2420 VRB04KT
       
OEBH 241700Z 26006KT CAVOK 27/13 Q1013 NOSIG
TAF OEBH 241100Z 2412/2518 25010G20KT 9999 FEW030 
     TEMPO 2412/2416 FEW025CB SCT030
       
OEGS 241700Z 04012KT 6000 SKC 24/11 Q1008
TAF OEGS 241100Z 2412/2518 29012KT 8000 NSC 
     TEMPO 2412/2418 4000 DU 
     BECMG 2420/2422 04006KT
       
OEGT 241700Z 36004KT 9999 SCT040 17/04 Q1014 NOSIG
TAF OEGT 241100Z 2412/2518 34012KT 9999 FEW030 SCT100 
     TEMPO 2412/2418 7000 TSRA SCT030 FEW035CB 
     BECMG 2419/2421 VRB04KT
       
OEHL 241700Z 05014KT 8000 SKC 19/07 Q1013 NOSIG
TAF OEHL 241100Z 2412/2518 26012KT 8000 FEW040 
     BECMG 2418/2420 04006KT
       
OEGN 241700Z 15006KT CAVOK 32/24 Q1007 NOSIG
TAF OEGN 241100Z 2412/2518 22013KT 7000 FEW030 
     BECMG 2418/2420 VRB04KT
       
OEJB 241700Z AUTO /////KT //// ///////// ///// Q//// NOSIG
OEDR 241700Z 11013KT 040V120 CAVOK 22/17 Q1008 NOSIG
TAF OEDR 241500Z 2418/2524 12013KT 8000 NSC 
     TEMPO 2500/2508 TSRA FEW030CB FEW040 BKN090 
     PROB40 
     TEMPO 2501/2506 2500 BR 
     TEMPO 2517/2523 TSRA
       
OEJN 241700Z 31012KT 9999 FEW040 25/17 Q1008 NOSIG
TAF OEJN 241700Z 2418/2524 34012KT 7000 FEW040 
     BECMG 2506/2508 30016KT
       
OEDF 241700Z 12010KT CAVOK 22/16 Q1009 NOSIG
TAF OEDF 241500Z 2418/2524 12013KT 8000 NSC 
     TEMPO 2500/2508 TSRA FEW030CB SCT040 BKN090 
     PROB40 
     TEMPO 2501/2506 2500 BR 
     TEMPO 2517/2523 TSRA
       
OEKM 241700Z 22008KT CAVOK 19/15 Q1022 NOSIG
TAF OEKM 241100Z 2412/2518 20010G20KT 9999 FEW020 
     TEMPO 2412/2416 7000 SCT020 FEW025CB 
     PROB30 
     TEMPO 2500/2505 3000 BR FEW015
       
OERK 241700Z 13012KT 5000 DU SCT040 BKN080 27/00 Q1010 TEMPO 3000 TSRA
TAF OERK 241700Z 2418/2524 03012KT 5000 DU SCT040 BKN080 
     TEMPO 2418/2506 VRB20KT 1500 BLDU/TSRA FEW035CB BKN040 
     BECMG 2506/2508 28014KT
       
OEKK 241700Z 30019KT 7000 SKC 21/12 Q1010 NOSIG
OENG 241700Z 15018KT 3000 DU SCT030 29/10 Q1013 NOSIG
TAF OENG 241100Z 2412/2518 21006G16KT 7000 FEW030 SCT100 
     PROB30 
     TEMPO 2414/2419 SCT030 FEW035CB
       
OEMA 241600Z 30013KT CAVOK 27/M09 Q1010 NOSIG
TAF OEMA 241700Z 2418/2524 32012KT 6000 SKC 
     BECMG 2506/2508 06016KT
       
OEPA 241700Z 36013KT 9000 SKC 20/15 Q1010 NOSIG
TAF OEPA 241100Z 2412/2518 35012KT 8000 FEW040 SCT100 
     TEMPO 2412/2418 4000 DU/TSRA FEW035CB SCT040 
     BECMG 2418/2420 02006KT
       
OERF 241700Z 11012KT 9999 BKN040 SCT100 20/03 Q1011
TAF OERF 241100Z 2412/2518 02012KT 8000 SCT040 BKN100 
     TEMPO 2412/2420 4000 DU/TSRA FEW035CB 
     BECMG 2418/2420 VRB04KT
       
TAF OERY 241100Z 2412/2518 25008G18KT 3000 FEW040 SCT080 
     TEMPO 2412/2424 1500 BLDU/TSRA FEW035CB SCT040
       
OESH 241732Z 33007KT 9999 TS FEW030CB SCT040 SCT080 34/08 Q1010 NOSIG
TAF OESH 241100Z 2412/2518 21013KT 7000 FEW030 SCT100 
     PROB30 
     TEMPO 2416/2423 FEW035CB
       
OETB 241700Z 01010KT 9999 SCT040 19/M03 Q1013 NOSIG
TAF OETB 241100Z 2412/2518 33012KT 9999 FEW040 SCT100 
     BECMG 2418/2420 VRB03KT
       
OETF 241700Z 26017KT 8000 FEW030 22/12 Q1016 NOSIG
TAF OETF 241700Z 2418/2512 22010G20KT 7000 FEW030 
     PROB30 
     TEMPO 2500/2505 3500 HZ/BR
       
OETR 241700Z 01006KT CAVOK 14/05 Q1015
TAF OETR 241100Z 2412/2518 34012KT 9999 FEW030 SCT100 
     TEMPO 2412/2418 7000 TSRA SCT030 FEW035CB 
     BECMG 2419/2421 VRB04KT
       
OEWD 241700Z 15004KT CAVOK 31/19 Q1006 NOSIG
TAF OEWD 241100Z 2412/2518 24012KT 7000 FEW030 SCT080 
     TEMPO 2414/2422 FEW035CB 
     BECMG 2418/2420 VRB04KT
       
OEWJ 241700Z 32017KT 9000 SKC 24/17 Q1009
TAF OEWJ 241100Z 2412/2518 31008G18KT 7000 FEW040 
     BECMG 2418/2420 VRB03KT
       
OEYN 241700Z 26013KT CAVOK 25/14 Q1007 NOSIG
TAF OEYN 241100Z 2412/2518 29008G18KT 7000 FEW040 
     BECMG 2418/2420 VRB03KT